Alton, KS

10:36 AM CST on November 22, 2014 (GMT -0600)
RAWS KIRWIN KS US | Change Station
CLOSE
Current Station
Personal Weather Station
Location: Kirwin, KS
Elevation: 1747 ft
Nearby Weather Stations

Elev 1747 ft 39.67 °N, 99.20 °W | Updated 40 minutes ago

Clear
Clear
30 °F
Feels Like 30 °F
N
3
Wind Variable Wind from ESE
Gusts 5.0 mph

Today
High -- | Low -- °F
--% Chance of Precip.
Yesterday
High -- | Low -- °F
Precip. -- in
7:27 AM 5:16 PM
New Moon, 0% visible
Pressure 29.89 in
Visibility 10.0 miles
Clouds Clear
Windchill 30 °F
Dew Point 28 °F
Humidity 92%
Rainfall 0.00 in
Snow Depth Not available.
UV 2 out of 12
Pollen .10 out of 12
Air Quality Not available.
Flu Activity Not available.
METAR KRSL 221553Z AUTO 17015KT 10SM CLR 04/03 A2986 RMK AO2 SLP122 T00440033

More Conditions Fewer Conditions

Pressure 29.89 in
Visibility 10.0 miles
Clouds Clear
Windchill 30 °F
Dew Point 28 °F
Humidity 92%
Rainfall 0.00 in
Snow Depth Not available.
UV 2 out of 12
Pollen .10 out of 12
Air Quality Not available.
Flu Activity Not available.
METAR KRSL 221553Z AUTO 17015KT 10SM CLR 04/03 A2986 RMK AO2 SLP122 T00440033

More Conditions Fewer Conditions

10-Day Weather Forecast

Almanac

Astronomy

Nov. 22, 2014 Rise Set
Actual Time
Civil Twilight
Nautical Twilight
Astronomical Twilight
Moon
Length of Visible Light
Length of Day
Tomorrow will be .
, % of the Moon is Illuminated

Today's Extremes

State Highs State Lows

Community

WunderPhotos

Upload Photos

1,772,847 photos uploaded!

WunderBlogs® & News

Nearby

Air Quality

  Air Quality AQ Index Pollutant
Not available.

Snow Depth

Station Depth Elevation

Earthquake Activity

City Distance Mag. Time & Date
Minimum magnitude displayed is 2.5.

Coastal Water Temperatures

Place Temperature

Nearby Weather Stations